createdAt,value
2018-09-05T00:02:13.807Z,17.48
2018-09-05T00:04:41.880Z,16.15
2018-09-05T00:07:09.171Z,16.60
2018-09-05T00:09:36.657Z,17.60
2018-09-05T00:12:03.887Z,15.97
2018-09-05T00:14:31.218Z,18.52
2018-09-05T00:16:58.531Z,20.77
2018-09-05T00:19:26.378Z,20.40
2018-09-05T00:21:54.331Z,17.23
2018-09-05T00:24:22.303Z,17.03
2018-09-05T00:26:50.512Z,21.65
2018-09-05T00:29:18.980Z,18.32
2018-09-05T00:31:47.761Z,15.27
2018-09-05T00:34:17.052Z,18.32
2018-09-05T00:36:45.429Z,18.25
2018-09-05T00:39:13.342Z,20.97
2018-09-05T00:41:41.056Z,22.77
2018-09-05T00:44:09.375Z,24.80
2018-09-05T00:46:36.642Z,20.10
2018-09-05T00:49:03.928Z,16.95
2018-09-05T00:51:31.483Z,20.55
2018-09-05T00:53:58.949Z,23.38
2018-09-05T00:56:26.322Z,20.50
2018-09-05T00:58:54.448Z,20.80
2018-09-05T01:01:22.357Z,22.53
2018-09-05T01:03:50.332Z,19.45
2018-09-05T01:06:18.392Z,23.52
2018-09-05T01:08:46.940Z,19.70
2018-09-05T01:11:14.491Z,19.87
2018-09-05T01:13:42.071Z,23.77
2018-09-05T01:16:09.517Z,23.40
2018-09-05T01:18:36.759Z,22.10
2018-09-05T01:21:04.089Z,22.30
2018-09-05T01:23:31.406Z,22.55
2018-09-05T01:25:58.663Z,21.70
2018-09-05T01:28:26.041Z,23.62
2018-09-05T01:30:54.035Z,27.10
2018-09-05T01:33:22.491Z,20.10
2018-09-05T01:35:54.905Z,24.25
2018-09-05T01:38:22.867Z,21.97
2018-09-05T01:40:50.846Z,23.40
2018-09-05T01:43:18.555Z,25.00
2018-09-05T01:45:46.952Z,24.92
2018-09-05T01:48:15.464Z,25.92
2018-09-05T01:50:44.145Z,23.00
2018-09-05T01:53:13.067Z,24.30
2018-09-05T01:55:40.332Z,23.80
2018-09-05T01:58:07.747Z,25.20
2018-09-05T02:00:35.836Z,27.60
2018-09-05T02:03:03.877Z,29.90
2018-09-05T02:05:31.135Z,25.77
2018-09-05T02:07:59.222Z,28.97
2018-09-05T02:10:26.654Z,29.90
2018-09-05T02:12:54.550Z,28.98
2018-09-05T02:15:22.207Z,31.35
2018-09-05T02:17:50.165Z,27.07
2018-09-05T02:20:18.242Z,30.10
2018-09-05T02:22:46.693Z,33.25
2018-09-05T02:25:14.022Z,30.95
2018-09-05T02:27:41.821Z,27.32
2018-09-05T02:30:09.125Z,31.65
2018-09-05T02:32:36.416Z,33.15
2018-09-05T02:35:03.764Z,33.73
2018-09-05T02:37:31.690Z,36.70
2018-09-05T02:39:58.933Z,34.13
2018-09-05T02:42:26.351Z,38.02
2018-09-05T02:44:54.139Z,37.53
2018-09-05T02:47:21.864Z,34.18
2018-09-05T02:49:50.003Z,37.73
2018-09-05T02:52:18.083Z,35.70
2018-09-05T02:55:25.627Z,39.60
2018-09-05T02:57:53.710Z,38.53
2018-09-05T03:00:21.134Z,41.02
2018-09-05T03:02:49.014Z,41.40
2018-09-05T03:05:17.729Z,40.05
2018-09-05T03:07:45.462Z,40.90
2018-09-05T03:10:13.282Z,45.33
2018-09-05T03:12:40.680Z,42.93
2018-09-05T03:15:08.138Z,43.20
2018-09-05T03:17:35.376Z,44.70
2018-09-05T03:20:02.641Z,45.58
2018-09-05T03:22:29.841Z,43.30
2018-09-05T03:24:57.040Z,42.47
2018-09-05T03:27:24.623Z,46.98
2018-09-05T03:29:52.492Z,51.30
2018-09-05T03:32:20.551Z,47.40
2018-09-05T03:34:48.497Z,46.92
2018-09-05T03:37:17.521Z,52.20
2018-09-05T03:39:46.463Z,49.80
2018-09-05T03:42:14.420Z,50.83
2018-09-05T03:44:41.966Z,49.88
2018-09-05T03:47:09.233Z,53.83
2018-09-05T03:49:36.786Z,52.25
2018-09-05T03:52:04.133Z,52.05
2018-09-05T03:54:31.343Z,55.80
2018-09-05T03:56:58.576Z,55.43
2018-09-05T03:59:31.587Z,52.30
2018-09-05T04:01:58.885Z,60.90
2018-09-05T04:04:26.194Z,60.35
2018-09-05T04:06:54.110Z,58.02
2018-09-05T04:09:21.772Z,58.95
2018-09-05T04:11:49.731Z,50.07
2018-09-05T04:14:17.522Z,45.15
2018-09-05T04:16:45.491Z,47.13
2018-09-05T04:19:13.081Z,47.13
2018-09-05T04:21:40.868Z,45.58
2018-09-05T04:24:08.680Z,46.33
2018-09-05T04:26:35.944Z,46.95
2018-09-05T04:29:03.270Z,40.95
2018-09-05T04:31:30.487Z,42.13
2018-09-05T04:33:57.695Z,40.55
2018-09-05T04:36:24.963Z,40.88
2018-09-05T04:38:52.443Z,37.55
2018-09-05T04:41:19.993Z,41.02
2018-09-05T04:43:48.023Z,31.90
2018-09-05T04:46:15.946Z,32.75
2018-09-05T04:48:43.841Z,35.35
2018-09-05T04:51:11.945Z,34.53
2018-09-05T04:53:39.236Z,40.88
2018-09-05T04:56:06.504Z,40.55
2018-09-05T04:58:33.916Z,41.77
2018-09-05T05:01:01.249Z,43.40
2018-09-05T05:03:28.485Z,39.90
2018-09-05T05:05:55.900Z,40.40
2018-09-05T05:08:23.387Z,40.80
2018-09-05T05:10:50.989Z,37.85
2018-09-05T05:13:18.700Z,41.85
2018-09-05T05:15:47.317Z,38.57
2018-09-05T05:18:14.879Z,35.68
2018-09-05T05:20:42.349Z,35.77
2018-09-05T05:23:10.214Z,35.80
2018-09-05T05:25:37.690Z,31.82
2018-09-05T05:28:05.011Z,32.65
2018-09-05T05:30:32.314Z,38.17
2018-09-05T05:32:59.616Z,40.40
2018-09-05T05:35:26.835Z,36.73
2018-09-05T05:37:54.340Z,35.15
2018-09-05T05:40:22.163Z,39.90
2018-09-05T05:42:49.691Z,40.03
2018-09-05T05:45:17.847Z,38.25
2018-09-05T05:47:46.012Z,35.07
2018-09-05T05:50:14.090Z,36.50
2018-09-05T05:52:41.834Z,38.60
2018-09-05T05:55:09.605Z,38.10
2018-09-05T05:57:36.831Z,39.85
2018-09-05T06:00:04.503Z,41.18
2018-09-05T06:02:31.744Z,35.92
2018-09-05T06:04:58.990Z,34.63
2018-09-05T06:07:26.355Z,37.13
2018-09-05T06:09:53.887Z,36.03
2018-09-05T06:12:21.447Z,31.73
2018-09-05T06:14:49.121Z,33.60
2018-09-05T06:17:18.653Z,33.70
2018-09-05T06:19:47.028Z,34.27
2018-09-05T06:22:14.829Z,24.83
2018-09-05T06:24:42.761Z,29.43
2018-09-05T06:27:10.619Z,29.60
2018-09-05T06:29:37.899Z,35.67
2018-09-05T06:32:05.209Z,30.23
2018-09-05T06:34:32.494Z,29.40
2018-09-05T06:36:59.713Z,29.60
2018-09-05T06:39:27.201Z,34.00
2018-09-05T06:41:54.800Z,34.80
2018-09-05T06:44:22.624Z,29.05
2018-09-05T06:46:50.573Z,28.02
2018-09-05T06:49:19.216Z,26.15
2018-09-05T06:51:47.683Z,27.15
2018-09-05T06:54:17.064Z,23.62
2018-09-05T06:56:45.113Z,23.00
2018-09-05T06:59:13.456Z,21.47
2018-09-05T07:01:40.933Z,18.73
2018-09-05T07:04:08.494Z,20.30
2018-09-05T07:06:35.832Z,19.65
2018-09-05T07:09:05.042Z,20.17
2018-09-05T07:11:32.628Z,19.23
2018-09-05T07:14:07.139Z,20.63
2018-09-05T07:16:34.523Z,18.25
2018-09-05T07:19:03.966Z,17.73
2018-09-05T07:21:31.473Z,19.73
2018-09-05T07:23:58.608Z,17.40
2018-09-05T07:26:26.139Z,16.95
2018-09-05T07:28:53.807Z,16.43
2018-09-05T07:31:21.364Z,16.12
2018-09-05T07:33:49.744Z,16.52
2018-09-05T07:36:18.119Z,15.73
2018-09-05T07:38:46.531Z,15.48
2018-09-05T07:41:15.187Z,22.58
2018-09-05T07:43:42.696Z,16.50
2018-09-05T07:46:10.761Z,20.43
2018-09-05T07:48:38.275Z,16.97
2018-09-05T07:51:05.587Z,19.20
2018-09-05T07:53:32.915Z,20.17
2018-09-05T07:56:00.176Z,18.27
2018-09-05T07:58:27.635Z,19.32
2018-09-05T08:00:54.869Z,15.78
2018-09-05T08:03:22.538Z,26.30
2018-09-05T08:05:50.412Z,21.52
2018-09-05T08:08:18.461Z,17.00
2018-09-05T08:10:46.824Z,16.47
2018-09-05T08:13:15.925Z,13.88
2018-09-05T08:15:44.008Z,16.32
2018-09-05T08:18:11.721Z,14.33
2018-09-05T08:20:39.175Z,17.73
2018-09-05T08:23:06.479Z,13.30
2018-09-05T08:25:33.746Z,10.98
2018-09-05T08:28:01.011Z,11.43
2018-09-05T08:30:28.364Z,13.78
2018-09-05T08:32:55.691Z,9.75
2018-09-05T08:35:23.595Z,9.90
2018-09-05T08:37:51.315Z,14.50
2018-09-05T08:40:19.176Z,13.67
2018-09-05T08:42:47.525Z,11.33
2018-09-05T08:45:15.835Z,12.53
2018-09-05T08:47:43.652Z,11.30
2018-09-05T08:50:10.856Z,13.28
2018-09-05T08:52:38.161Z,9.25
2018-09-05T08:55:05.462Z,10.32
2018-09-05T08:57:32.773Z,14.03
2018-09-05T09:00:00.768Z,10.00
2018-09-05T09:02:27.997Z,10.32
2018-09-05T09:04:55.496Z,11.10
2018-09-05T09:07:23.088Z,9.83
2018-09-05T09:09:50.773Z,10.20
2018-09-05T09:12:19.487Z,11.60
2018-09-05T09:14:47.159Z,10.40
2018-09-05T09:17:14.515Z,10.47
2018-09-05T09:19:41.855Z,9.00
2018-09-05T09:22:09.743Z,7.53
2018-09-05T09:24:37.056Z,8.60
2018-09-05T09:27:04.355Z,11.50
2018-09-05T09:29:31.767Z,10.23
2018-09-05T09:31:58.958Z,8.70
2018-09-05T09:34:26.580Z,12.33
2018-09-05T09:36:54.128Z,9.40
2018-09-05T09:39:22.542Z,13.40
2018-09-05T09:41:50.273Z,8.38
2018-09-05T09:44:18.482Z,8.55
2018-09-05T09:46:47.920Z,11.18
2018-09-05T09:49:15.287Z,9.77
2018-09-05T09:51:42.663Z,8.30
2018-09-05T09:54:10.008Z,7.70
2018-09-05T09:56:37.254Z,10.33
2018-09-05T09:59:04.884Z,9.47
2018-09-05T10:01:37.912Z,8.63
2018-09-05T10:04:11.324Z,11.10
2018-09-05T10:06:41.489Z,8.00
2018-09-05T10:09:14.549Z,10.80
2018-09-05T10:11:47.825Z,11.10
2018-09-05T10:16:54.729Z,10.45
2018-09-05T10:19:23.395Z,11.40
2018-09-05T10:21:53.016Z,7.73
2018-09-05T10:24:20.617Z,8.60
2018-09-05T10:34:10.303Z,7.37
2018-09-05T10:36:37.539Z,10.15
2018-09-05T10:39:07.513Z,7.50
2018-09-05T10:41:35.500Z,9.68
2018-09-05T10:44:02.756Z,7.83
2018-09-05T10:46:30.032Z,8.75
2018-09-05T10:48:57.280Z,6.95
2018-09-05T10:51:29.757Z,7.33
2018-09-05T10:53:57.115Z,7.72
2018-09-05T10:56:24.967Z,9.30
2018-09-05T10:58:52.946Z,7.95
2018-09-05T11:01:20.609Z,6.70
2018-09-05T11:03:48.665Z,8.63
2018-09-05T11:06:17.344Z,8.35
2018-09-05T11:08:45.503Z,9.35
2018-09-05T11:11:13.139Z,7.17
2018-09-05T11:13:40.735Z,6.12
2018-09-05T11:16:08.017Z,10.50
2018-09-05T11:28:23.008Z,12.73
2018-09-05T11:30:50.768Z,8.83
2018-09-05T11:33:18.684Z,10.53
2018-09-05T11:35:47.351Z,6.28
2018-09-05T11:38:15.615Z,6.80
2018-09-05T11:43:10.236Z,8.80
2018-09-05T11:45:37.477Z,5.10
2018-09-05T11:48:04.761Z,5.45
2018-09-05T11:50:32.031Z,6.72
2018-09-05T11:52:59.223Z,6.92
2018-09-05T11:55:26.635Z,6.97
2018-09-05T11:57:54.443Z,7.20
2018-09-05T12:00:22.327Z,8.00
2018-09-05T12:02:49.862Z,5.33
2018-09-05T12:05:17.717Z,6.27
2018-09-05T12:07:46.728Z,8.60
2018-09-05T12:10:14.794Z,6.70
2018-09-05T12:12:42.489Z,4.93
2018-09-05T12:15:10.005Z,4.93
2018-09-05T12:17:37.255Z,6.90
2018-09-05T12:24:57.935Z,4.20
2018-09-05T12:29:53.035Z,4.90
2018-09-05T12:32:20.560Z,3.97
2018-09-05T12:34:48.681Z,3.87
2018-09-05T12:37:17.025Z,6.50
2018-09-05T12:39:45.850Z,4.55
2018-09-05T12:42:13.201Z,5.90
2018-09-05T13:06:44.823Z,4.80
2018-09-05T13:09:13.652Z,4.45
2018-09-05T13:11:41.325Z,4.30
2018-09-05T13:16:35.621Z,4.08
2018-09-05T13:19:02.946Z,3.65
2018-09-05T13:21:30.528Z,3.45
2018-09-05T13:26:25.288Z,4.00
2018-09-05T13:31:20.216Z,3.70
2018-09-05T13:33:48.725Z,7.87
2018-09-05T13:36:17.976Z,8.00
2018-09-05T13:38:46.530Z,5.57
2018-09-05T13:41:14.075Z,3.80
2018-09-05T13:48:36.236Z,4.47
2018-09-05T13:51:04.123Z,4.37
2018-09-05T13:53:31.399Z,5.77
2018-09-05T13:58:25.902Z,4.20
2018-09-05T14:00:53.395Z,5.50
2018-09-05T14:03:21.086Z,4.97
2018-09-05T14:05:49.327Z,3.62
2018-09-05T14:08:17.932Z,3.55
2018-09-05T14:10:45.257Z,3.55
2018-09-05T14:13:12.969Z,3.60
2018-09-05T14:15:40.612Z,4.10
2018-09-05T14:18:08.568Z,4.20
2018-09-05T14:20:35.897Z,5.60
2018-09-05T14:23:04.083Z,3.57
2018-09-05T14:25:31.339Z,6.00
2018-09-05T14:27:58.893Z,3.80
2018-09-05T14:30:26.435Z,6.85
2018-09-05T14:32:54.347Z,7.97
2018-09-05T14:35:22.200Z,5.53
2018-09-05T14:37:50.211Z,5.15
2018-09-05T14:40:18.448Z,5.30
2018-09-05T14:42:46.843Z,3.65
2018-09-05T14:47:41.931Z,5.40
2018-09-05T14:50:09.391Z,3.95
2018-09-05T14:52:36.786Z,4.12
2018-09-05T14:55:03.987Z,4.05
2018-09-05T14:57:31.298Z,5.67
2018-09-05T14:59:58.559Z,4.22
2018-09-05T15:02:26.416Z,3.12
2018-09-05T15:04:54.314Z,5.00
2018-09-05T15:07:22.000Z,3.27
2018-09-05T15:09:50.363Z,4.12
2018-09-05T15:12:18.662Z,7.53
2018-09-05T15:14:47.575Z,5.70
2018-09-05T15:17:15.567Z,4.95
2018-09-05T15:19:43.505Z,3.50
2018-09-05T15:22:10.785Z,3.58
2018-09-05T15:24:38.084Z,6.05
2018-09-05T15:27:05.456Z,3.83
2018-09-05T15:29:32.772Z,8.73
2018-09-05T15:31:59.993Z,3.52
2018-09-05T15:34:27.784Z,3.58
2018-09-05T15:36:55.626Z,4.08
2018-09-05T15:39:23.220Z,7.75
2018-09-05T15:41:51.304Z,4.58
2018-09-05T15:44:19.173Z,3.77
2018-09-05T15:46:47.263Z,4.30
2018-09-05T15:49:16.224Z,4.70
2018-09-05T15:51:44.775Z,7.80
2018-09-05T15:54:12.612Z,5.17
2018-09-05T15:56:40.348Z,6.83
2018-09-05T15:59:07.636Z,5.80
2018-09-05T16:16:18.914Z,6.27
2018-09-05T16:18:46.386Z,5.90
2018-09-05T16:21:14.489Z,8.60
2018-09-05T16:23:42.106Z,5.77
2018-09-05T16:26:09.870Z,7.70
2018-09-05T16:28:37.251Z,10.50
2018-09-05T16:31:04.600Z,6.50
2018-09-05T16:33:31.882Z,7.10
2018-09-05T16:35:59.179Z,8.50
2018-09-05T16:38:26.935Z,6.23
2018-09-05T16:40:55.081Z,5.20
2018-09-05T16:43:22.535Z,7.93
2018-09-05T16:53:14.094Z,10.32
2018-09-05T16:55:41.408Z,8.25
2018-09-05T16:58:08.733Z,7.75
2018-09-05T17:00:36.431Z,8.60
2018-09-05T17:03:03.954Z,8.55
2018-09-05T17:05:31.274Z,6.10
2018-09-05T17:07:58.508Z,7.22
2018-09-05T17:10:26.287Z,9.60
2018-09-05T17:12:54.035Z,7.60
2018-09-05T17:15:22.234Z,7.93
2018-09-05T17:17:50.475Z,9.43
2018-09-05T17:20:18.479Z,7.60
2018-09-05T17:22:47.054Z,13.22
2018-09-05T17:25:15.201Z,10.95
2018-09-05T17:27:42.972Z,10.95
2018-09-05T17:30:10.473Z,9.40
2018-09-05T17:32:37.799Z,8.98
2018-09-05T17:35:05.643Z,9.40
2018-09-05T17:37:33.091Z,8.85
2018-09-05T17:40:00.525Z,7.33
2018-09-05T17:42:27.767Z,7.70
2018-09-05T17:44:55.342Z,12.50
2018-09-05T17:47:23.143Z,10.18
2018-09-05T17:49:50.880Z,7.43
2018-09-05T17:52:18.964Z,10.60
2018-09-05T18:04:34.512Z,7.83
2018-09-05T18:07:02.112Z,8.98
2018-09-05T18:09:29.410Z,9.05
2018-09-05T18:11:56.964Z,9.80
2018-09-05T18:14:24.457Z,8.90
2018-09-05T18:16:51.788Z,7.93
2018-09-05T18:19:19.443Z,11.48
2018-09-05T18:21:46.821Z,9.80
2018-09-05T18:24:14.333Z,10.18
2018-09-05T18:26:41.738Z,13.43
2018-09-05T18:29:09.270Z,9.80
2018-09-05T18:31:36.562Z,11.55
2018-09-05T18:34:03.836Z,9.70
2018-09-05T18:36:31.286Z,10.72
2018-09-05T18:38:58.496Z,10.32
2018-09-05T18:41:25.833Z,9.20
2018-09-05T18:43:53.332Z,11.63
2018-09-05T18:46:20.756Z,8.85
2018-09-05T18:48:48.375Z,8.23
2018-09-05T18:51:16.287Z,9.30
2018-09-05T18:53:43.563Z,12.10
2018-09-05T18:56:11.355Z,8.00
2018-09-05T18:58:38.743Z,12.45
2018-09-05T19:01:06.051Z,11.55
2018-09-05T19:03:33.459Z,10.72
2018-09-05T19:06:00.727Z,9.25
2018-09-05T19:08:28.049Z,9.55
2018-09-05T19:10:55.412Z,10.47
2018-09-05T19:13:22.797Z,8.23
2018-09-05T19:15:50.560Z,7.85
2018-09-05T19:18:18.646Z,6.50
2018-09-05T19:20:46.737Z,8.83
2018-09-05T19:23:15.207Z,8.70
2018-09-05T19:25:42.662Z,11.43
2018-09-05T19:28:10.411Z,8.65
2018-09-05T19:30:39.516Z,9.95
2018-09-05T19:33:06.796Z,8.63
2018-09-05T19:35:34.260Z,9.90
2018-09-05T19:38:01.468Z,9.23
2018-09-05T19:40:28.683Z,11.20
2018-09-05T19:42:56.032Z,7.57
2018-09-05T19:45:24.288Z,10.07
2018-09-05T19:47:52.402Z,13.50
2018-09-05T19:50:20.822Z,10.13
2018-09-05T19:52:48.805Z,9.63
2018-09-05T19:55:17.681Z,7.20
2018-09-05T19:57:45.781Z,9.20
2018-09-05T20:00:14.581Z,7.67
2018-09-05T20:02:42.148Z,8.57
2018-09-05T20:05:09.578Z,7.93
2018-09-05T20:07:44.599Z,9.50
2018-09-05T20:10:12.334Z,8.60
2018-09-05T20:12:40.220Z,6.90
2018-09-05T20:15:07.477Z,10.30
2018-09-05T20:17:35.304Z,7.43
2018-09-05T20:20:04.443Z,9.40
2018-09-05T20:22:31.691Z,10.47
2018-09-05T20:24:58.999Z,9.33
2018-09-05T20:27:27.457Z,8.90
2018-09-05T20:29:57.012Z,9.00
2018-09-05T20:32:24.612Z,8.43
2018-09-05T20:34:57.354Z,9.70
2018-09-05T20:37:25.486Z,8.25
2018-09-05T20:39:52.729Z,10.45
2018-09-05T20:42:20.208Z,8.75
2018-09-05T20:44:49.556Z,9.25
2018-09-05T20:47:16.919Z,8.50
2018-09-05T20:49:44.380Z,8.93
2018-09-05T20:52:11.677Z,9.90
2018-09-05T20:54:38.911Z,8.35
2018-09-05T20:57:06.831Z,7.93
2018-09-05T20:59:35.164Z,9.68
2018-09-05T21:02:02.392Z,9.43
2018-09-05T21:04:30.532Z,10.63
2018-09-05T21:06:58.717Z,12.37
2018-09-05T21:09:25.942Z,9.10
2018-09-05T21:11:53.464Z,8.85
2018-09-05T21:14:21.641Z,11.00
2018-09-05T21:16:49.058Z,8.90
2018-09-05T21:19:16.533Z,8.20
2018-09-05T21:21:44.112Z,9.83
2018-09-05T21:24:11.334Z,11.00
2018-09-05T21:26:38.865Z,10.00
2018-09-05T21:29:06.240Z,10.43
2018-09-05T21:31:33.468Z,11.60
2018-09-05T21:34:02.439Z,10.80
2018-09-05T21:36:31.105Z,7.97
2018-09-05T21:38:58.382Z,9.40
2018-09-05T21:41:25.745Z,8.53
2018-09-05T21:43:53.394Z,9.97
2018-09-05T21:46:21.627Z,9.50
2018-09-05T21:48:49.165Z,7.15
2018-09-05T21:51:17.868Z,9.68
2018-09-05T21:53:45.543Z,9.00
2018-09-05T21:56:15.763Z,7.20
2018-09-05T21:58:43.065Z,8.85
2018-09-05T22:01:14.509Z,8.15
2018-09-05T22:03:41.796Z,7.65
2018-09-05T22:06:09.159Z,6.97
2018-09-05T22:08:37.125Z,11.57
2018-09-05T22:11:10.383Z,8.65
2018-09-05T22:13:38.029Z,9.40
2018-09-05T22:16:05.232Z,10.80
2018-09-05T22:18:33.255Z,10.00
2018-09-05T22:21:07.223Z,9.07
2018-09-05T22:23:34.468Z,10.58
2018-09-05T22:26:01.755Z,9.88
2018-09-05T22:28:29.067Z,7.20
2018-09-05T22:30:56.513Z,10.63
2018-09-05T22:33:24.418Z,7.25
2018-09-05T22:35:52.928Z,10.70
2018-09-05T22:38:20.843Z,9.55
2018-09-05T22:40:53.462Z,11.35
2018-09-05T22:43:33.254Z,11.10
2018-09-05T22:46:13.076Z,11.75
2018-09-05T22:50:56.550Z,10.88
2018-09-05T22:56:01.155Z,8.77
2018-09-05T23:00:45.508Z,12.30
2018-09-05T23:04:45.102Z,8.98
2018-09-05T23:09:32.774Z,12.43
2018-09-05T23:12:11.547Z,12.20
2018-09-05T23:14:56.160Z,8.93
2018-09-05T23:17:41.248Z,10.17
2018-09-05T23:21:25.996Z,8.10
2018-09-05T23:24:02.920Z,8.50
2018-09-05T23:26:30.276Z,8.90
2018-09-05T23:28:57.534Z,8.40
2018-09-05T23:31:25.636Z,10.32
2018-09-05T23:33:53.509Z,9.10
2018-09-05T23:36:21.563Z,7.40
2018-09-05T23:38:49.664Z,9.15
2018-09-05T23:41:19.124Z,8.80
2018-09-05T23:43:47.465Z,10.40
2018-09-05T23:46:15.949Z,8.20
2018-09-05T23:48:43.708Z,9.88
2018-09-05T23:51:11.586Z,10.75
2018-09-05T23:53:39.463Z,8.73
2018-09-05T23:56:06.793Z,11.40
2018-09-05T23:58:34.045Z,10.70
